Terminal Aerodrome Forecast
Issued by NWS

Home | Current Version | Previous Version | Text Only | Print | Product List | Glossary Off
Versions: 1 2 3 4 5 6 7 8 9 10 11 12 13 14 15 16

000
FTUS43 KMPX 162203 AAA
TAFRWF
TAF AMD
KRWF 162203Z 1622/1718 VRB04KT 4SM BR SCT007 BKN015
      TEMPO 1622/1702 3SM -FZRASN BR BKN007
     FM170200 33006KT 2SM BR OVC007
     FM171400 30006KT 5SM BR SCT010=

USA.gov is the U.S. government's official web portal to all federal, state and local government web resources and services.